Time;durP1;ratioP1;P1;durP2;ratioP2;P2;SDS_P1;SDS_P2;PMS_P1;PMS_P2;Temp;Humidity;BMP_temperature;BMP_pressure;BME280_temperature;BME280_humidity;BME280_pressure;Samples;Min_cycle;Max_cycle;Signal;HPM_P1;HPM_P2
2023/04/09 00:01:09;;;;;;;36.53;14.48;;;;;;;;;;5009379;28;20034;-58
2023/04/09 00:03:36;;;;;;;31.77;13.80;;;;;;;;;;5009920;28;20040;-59
2023/04/09 00:06:03;;;;;;;33.30;15.15;;;;;;;;;;5008486;28;20050;-59
2023/04/09 00:08:29;;;;;;;30.77;13.68;;;;;;;;;;5008757;28;20041;-59
2023/04/09 00:10:56;;;;;;;33.10;14.55;;;;;;;;;;5008066;28;20045;-58
2023/04/09 00:13:23;;;;;;;34.20;15.27;;;;;;;;;;5009137;28;20045;-58
2023/04/09 00:15:49;;;;;;;27.23;13.23;;;;;;;;;;5007967;28;20050;-58
2023/04/09 00:18:15;;;;;;;28.38;13.55;;;;;;;;;;5009785;28;20038;-58
2023/04/09 00:20:42;;;;;;;31.83;14.77;;;;;;;;;;5009134;28;20037;-58
2023/04/09 00:23:09;;;;;;;31.80;14.75;;;;;;;;;;5009369;28;20030;-58
2023/04/09 00:25:35;;;;;;;30.13;14.48;;;;;;;;;;5009488;28;20046;-58
2023/04/09 00:28:02;;;;;;;31.98;14.98;;;;;;;;;;5009770;28;20061;-58
2023/04/09 00:30:28;;;;;;;30.55;14.65;;;;;;;;;;5007623;28;20033;-58
2023/04/09 00:32:54;;;;;;;30.88;14.75;;;;;;;;;;5035939;28;20408;-58
2023/04/09 00:35:21;;;;;;;28.48;13.60;;;;;;;;;;5004650;28;20407;-58
2023/04/09 00:37:47;;;;;;;35.13;14.95;;;;;;;;;;5007791;28;20033;-58
2023/04/09 00:40:14;;;;;;;37.63;15.75;;;;;;;;;;5008079;28;20042;-57
2023/04/09 00:42:40;;;;;;;39.42;15.70;;;;;;;;;;5034102;28;20026;-57
2023/04/09 00:45:07;;;;;;;46.00;17.30;;;;;;;;;;5007142;28;20042;-58
2023/04/09 00:47:34;;;;;;;33.38;16.13;;;;;;;;;;5009586;28;20395;-58
2023/04/09 00:50:02;;;;;;;44.13;16.75;;;;;;;;;;5007127;28;20064;-58
2023/04/09 00:52:31;;;;;;;33.22;15.38;;;;;;;;;;5005205;28;20022;-59
2023/04/09 00:55:05;;;;;;;35.45;15.60;;;;;;;;;;5007559;28;20046;-58
2023/04/09 00:57:31;;;;;;;38.40;16.83;;;;;;;;;;5007760;28;20041;-58
2023/04/09 00:59:57;;;;;;;55.50;21.25;;;;;;;;;;5006241;28;20054;-58
2023/04/09 01:02:24;;;;;;;42.05;17.50;;;;;;;;;;5007900;28;20049;-58
2023/04/09 01:04:50;;;;;;;43.67;18.02;;;;;;;;;;5008714;28;20045;-58
2023/04/09 01:07:41;;;;;;;42.75;18.80;;;;;;;;;;5009396;28;20041;-58
2023/04/09 01:10:30;;;;;;;40.42;17.17;;;;;;;;;;5008094;28;20073;-58
2023/04/09 01:13:05;;;;;;;37.78;16.60;;;;;;;;;;5011589;28;20037;-58
2023/04/09 01:15:36;;;;;;;45.28;16.75;;;;;;;;;;5012620;28;20034;-58
2023/04/09 01:18:10;;;;;;;35.13;16.42;;;;;;;;;;5003646;28;20629;-58
2023/04/09 01:20:42;;;;;;;34.30;15.32;;;;;;;;;;5010700;28;20399;-58
2023/04/09 01:23:37;;;;;;;39.78;17.63;;;;;;;;;;5009882;28;20658;-58
2023/04/09 01:26:12;;;;;;;41.85;16.25;;;;;;;;;;5002828;28;20073;-58
2023/04/09 01:28:52;;;;;;;36.58;16.05;;;;;;;;;;5009190;28;20048;-58
2023/04/09 01:31:24;;;;;;;38.70;17.20;;;;;;;;;;5007886;28;20041;-58
2023/04/09 01:33:51;;;;;;;38.35;16.35;;;;;;;;;;5012672;28;20050;-58
2023/04/09 01:36:19;;;;;;;40.85;15.85;;;;;;;;;;5008260;28;20057;-59
2023/04/09 01:38:49;;;;;;;37.05;15.48;;;;;;;;;;5012628;28;20033;-59
2023/04/09 01:41:20;;;;;;;39.83;15.57;;;;;;;;;;5009697;28;20046;-59
2023/04/09 01:43:49;;;;;;;43.60;16.90;;;;;;;;;;5010543;28;20050;-58
2023/04/09 01:46:17;;;;;;;38.75;15.95;;;;;;;;;;5012667;28;20034;-58
2023/04/09 01:48:45;;;;;;;37.17;15.48;;;;;;;;;;5012630;28;20045;-57
2023/04/09 01:51:14;;;;;;;41.00;16.55;;;;;;;;;;5010596;28;20049;-57
2023/04/09 01:53:41;;;;;;;41.28;17.40;;;;;;;;;;5012585;28;20053;-58
2023/04/09 01:56:08;;;;;;;40.45;16.35;;;;;;;;;;5011336;28;20041;-58
2023/04/09 01:58:34;;;;;;;40.33;16.40;;;;;;;;;;4994665;28;20049;-58
2023/04/09 02:01:27;;;;;;;41.42;16.42;;;;;;;;;;5010656;28;20038;-58
2023/04/09 02:03:57;;;;;;;41.13;17.02;;;;;;;;;;5012195;28;20026;-58
2023/04/09 02:06:35;;;;;;;;;;;;;;;;;;5013208;28;20044;-58
2023/04/09 02:09:04;;;;;;;38.78;16.48;;;;;;;;;;5010713;28;19921;-58
2023/04/09 02:11:32;;;;;;;41.80;17.97;;;;;;;;;;5012421;28;20038;-58
2023/04/09 02:14:00;;;;;;;45.95;17.50;;;;;;;;;;5010168;28;20319;-58
2023/04/09 02:16:27;;;;;;;41.50;17.50;;;;;;;;;;5012122;28;20049;-58
2023/04/09 02:18:55;;;;;;;44.47;16.48;;;;;;;;;;5011731;28;20029;-57
2023/04/09 02:21:22;;;;;;;37.78;16.88;;;;;;;;;;5010692;28;20041;-58
2023/04/09 02:23:49;;;;;;;41.50;17.17;;;;;;;;;;5008161;28;20042;-58
2023/04/09 02:26:15;;;;;;;42.88;16.63;;;;;;;;;;5009904;28;20416;-58
2023/04/09 02:28:41;;;;;;;41.75;17.58;;;;;;;;;;5008608;28;20042;-57
2023/04/09 02:31:08;;;;;;;46.53;18.00;;;;;;;;;;5007976;28;20065;-57
2023/04/09 02:33:34;;;;;;;48.60;17.15;;;;;;;;;;5009643;28;20049;-58
2023/04/09 02:36:00;;;;;;;43.25;18.15;;;;;;;;;;5007172;28;20037;-58
2023/04/09 02:38:26;;;;;;;42.92;17.05;;;;;;;;;;5005444;28;20048;-57
2023/04/09 02:40:52;;;;;;;42.83;17.80;;;;;;;;;;5008553;28;20041;-58
2023/04/09 02:43:18;;;;;;;45.45;18.45;;;;;;;;;;5007164;28;20038;-58
2023/04/09 02:45:44;;;;;;;43.97;18.08;;;;;;;;;;5011361;28;20502;-59
2023/04/09 02:48:10;;;;;;;46.42;17.58;;;;;;;;;;5009408;28;20053;-57
2023/04/09 02:50:38;;;;;;;45.58;17.70;;;;;;;;;;5009578;28;20050;-58
2023/04/09 02:53:04;;;;;;;46.78;16.90;;;;;;;;;;5010046;28;20038;-58
2023/04/09 02:55:31;;;;;;;47.72;18.65;;;;;;;;;;5009479;28;20034;-57
2023/04/09 02:57:57;;;;;;;51.15;19.70;;;;;;;;;;5010261;28;20048;-57
2023/04/09 03:00:23;;;;;;;44.35;17.83;;;;;;;;;;5010840;28;20045;-57
2023/04/09 03:02:49;;;;;;;44.78;17.92;;;;;;;;;;5010217;28;20038;-58
2023/04/09 03:05:15;;;;;;;46.10;17.95;;;;;;;;;;5010898;28;20484;-58
2023/04/09 03:07:41;;;;;;;47.53;18.65;;;;;;;;;;5011359;28;20037;-58
2023/04/09 03:10:08;;;;;;;42.97;17.75;;;;;;;;;;5010795;28;20034;-58
2023/04/09 03:12:34;;;;;;;49.35;18.70;;;;;;;;;;5011142;28;20069;-58
2023/04/09 03:15:00;;;;;;;47.17;17.63;;;;;;;;;;5010540;28;20049;-57
2023/04/09 03:17:27;;;;;;;44.65;18.52;;;;;;;;;;5011081;28;20068;-59
2023/04/09 03:19:54;;;;;;;46.60;17.45;;;;;;;;;;5008956;28;20045;-59
2023/04/09 03:22:20;;;;;;;46.03;17.48;;;;;;;;;;5009452;28;20404;-57
2023/04/09 03:24:51;;;;;;;45.55;18.73;;;;;;;;;;5008055;28;20041;-58
2023/04/09 03:27:17;;;;;;;45.30;18.40;;;;;;;;;;5008081;28;20050;-59
2023/04/09 03:29:44;;;;;;;47.05;18.02;;;;;;;;;;5004301;28;20034;-58
2023/04/09 03:32:11;;;;;;;52.17;18.10;;;;;;;;;;5007400;28;20042;-58
2023/04/09 03:34:37;;;;;;;46.88;18.40;;;;;;;;;;5010012;28;20049;-58
2023/04/09 03:37:04;;;;;;;43.25;17.52;;;;;;;;;;5009372;28;20033;-58
2023/04/09 03:39:31;;;;;;;45.22;18.00;;;;;;;;;;5006770;28;20069;-58
2023/04/09 03:41:57;;;;;;;51.55;19.25;;;;;;;;;;5010318;28;20034;-59
2023/04/09 03:44:26;;;;;;;49.95;19.70;;;;;;;;;;5008206;28;20034;-59
2023/04/09 03:47:12;;;;;;;49.05;18.02;;;;;;;;;;5008607;28;20534;-59
2023/04/09 03:49:39;;;;;;;44.50;18.27;;;;;;;;;;5003675;28;20045;-59
2023/04/09 03:52:19;;;;;;;53.17;18.67;;;;;;;;;;4989118;28;20531;-59
2023/04/09 03:54:53;;;;;;;46.88;16.67;;;;;;;;;;5008797;28;20060;-58
2023/04/09 03:57:22;;;;;;;45.05;18.85;;;;;;;;;;5004142;28;20040;-57
2023/04/09 03:59:51;;;;;;;46.22;17.27;;;;;;;;;;4990552;28;20041;-58
2023/04/09 04:02:20;;;;;;;50.47;18.70;;;;;;;;;;5003769;28;20026;-58
2023/04/09 04:04:54;;;;;;;42.28;16.90;;;;;;;;;;5008096;28;20065;-57
2023/04/09 04:07:23;;;;;;;48.45;18.27;;;;;;;;;;5008918;28;20053;-58
2023/04/09 04:09:54;;;;;;;44.70;17.10;;;;;;;;;;4992675;28;20045;-59
2023/04/09 04:12:20;;;;;;;48.53;18.95;;;;;;;;;;4992557;28;20037;-58
2023/04/09 04:15:04;;;;;;;48.63;17.95;;;;;;;;;;5008010;28;20507;-58
2023/04/09 04:17:45;;;;;;;44.58;18.30;;;;;;;;;;4992253;28;20037;-57
2023/04/09 04:20:23;;;;;;;47.05;17.00;;;;;;;;;;5007976;28;20117;-58
2023/04/09 04:22:56;;;;;;;43.88;17.27;;;;;;;;;;5006706;28;20034;-58
2023/04/09 04:25:24;;;;;;;50.83;17.88;;;;;;;;;;5006495;28;20495;-59
2023/04/09 04:27:53;;;;;;;46.70;18.10;;;;;;;;;;5006814;28;20092;-59
2023/04/09 04:30:21;;;;;;;;;;;;;;;;;;5005098;28;20408;-58
2023/04/09 04:33:00;;;;;;;50.45;17.15;;;;;;;;;;5005259;28;19924;-58
2023/04/09 04:35:31;;;;;;;51.35;18.00;;;;;;;;;;5005121;28;20085;-58
2023/04/09 04:38:00;;;;;;;50.75;17.95;;;;;;;;;;5004689;28;20053;-58
2023/04/09 04:40:28;;;;;;;51.55;18.10;;;;;;;;;;5007853;28;20038;-58
2023/04/09 04:42:59;;;;;;;50.28;18.17;;;;;;;;;;5008711;28;20475;-58
2023/04/09 04:45:25;;;;;;;48.47;17.90;;;;;;;;;;5007877;28;20029;-58
2023/04/09 04:47:56;;;;;;;55.75;20.20;;;;;;;;;;5007786;28;20048;-58
2023/04/09 04:50:22;;;;;;;49.25;18.52;;;;;;;;;;5007567;28;20056;-59
2023/04/09 04:53:08;;;;;;;47.90;16.80;;;;;;;;;;5001096;28;20038;-58
2023/04/09 04:55:45;;;;;;;54.67;18.88;;;;;;;;;;5008287;28;20038;-58
2023/04/09 04:58:14;;;;;;;49.22;18.23;;;;;;;;;;5007906;28;20037;-58
2023/04/09 05:00:45;;;;;;;44.03;17.17;;;;;;;;;;5007663;28;20053;-58
2023/04/09 05:03:12;;;;;;;45.78;17.33;;;;;;;;;;5008379;28;20026;-58
2023/04/09 05:06:11;;;;;;;46.13;17.13;;;;;;;;;;5006801;28;20504;-58
2023/04/09 05:08:42;;;;;;;52.67;18.42;;;;;;;;;;5008337;28;20038;-57
2023/04/09 05:11:11;;;;;;;54.38;18.88;;;;;;;;;;5007541;28;20057;-57
2023/04/09 05:13:38;;;;;;;49.40;17.60;;;;;;;;;;5008331;28;20046;-57
2023/04/09 05:16:15;;;;;;;49.00;19.05;;;;;;;;;;5007185;28;20627;-57
2023/04/09 05:18:42;;;;;;;50.83;18.52;;;;;;;;;;5007411;28;20025;-57
2023/04/09 05:21:09;;;;;;;51.70;18.70;;;;;;;;;;5009071;28;20049;-57
2023/04/09 05:23:35;;;;;;;43.83;17.35;;;;;;;;;;5007682;28;20057;-57
2023/04/09 05:26:01;;;;;;;48.83;18.10;;;;;;;;;;5008271;28;20426;-58
2023/04/09 05:28:35;;;;;;;54.67;18.98;;;;;;;;;;5005314;28;20053;-58
2023/04/09 05:31:15;;;;;;;52.70;18.20;;;;;;;;;;5001338;28;20065;-57
2023/04/09 05:33:49;;;;;;;50.55;19.08;;;;;;;;;;5021432;28;20030;-57
2023/04/09 05:36:21;;;;;;;54.92;17.90;;;;;;;;;;5008298;28;20038;-58
2023/04/09 05:38:47;;;;;;;52.25;18.80;;;;;;;;;;5007867;28;20038;-57
2023/04/09 05:41:14;;;;;;;50.55;17.58;;;;;;;;;;5008747;28;20048;-58
2023/04/09 05:43:50;;;;;;;58.60;19.27;;;;;;;;;;5007781;28;20030;-57
2023/04/09 05:46:17;;;;;;;54.80;18.88;;;;;;;;;;4991213;28;20049;-56
2023/04/09 05:48:43;;;;;;;61.63;19.83;;;;;;;;;;4991665;28;20037;-57
2023/04/09 05:51:10;;;;;;;56.17;20.23;;;;;;;;;;5007504;28;20042;-58
2023/04/09 05:53:37;;;;;;;52.13;18.90;;;;;;;;;;4988175;28;20435;-58
2023/04/09 05:56:13;;;;;;;55.83;18.90;;;;;;;;;;5007965;28;20483;-56
2023/04/09 05:58:46;;;;;;;51.08;18.75;;;;;;;;;;5006939;28;20065;-57
2023/04/09 06:01:12;;;;;;;61.83;21.80;;;;;;;;;;5010924;28;20033;-58
2023/04/09 06:03:39;;;;;;;55.05;21.55;;;;;;;;;;5012651;28;20042;-57
2023/04/09 06:06:05;;;;;;;57.53;20.48;;;;;;;;;;5012531;28;20549;-58
2023/04/09 06:08:33;;;;;;;84.95;25.60;;;;;;;;;;5011590;28;20045;-57
2023/04/09 06:10:59;;;;;;;117.10;30.00;;;;;;;;;;5010913;28;20397;-58
2023/04/09 06:13:25;;;;;;;114.82;30.30;;;;;;;;;;5012173;28;20052;-58
2023/04/09 06:15:52;;;;;;;104.57;28.55;;;;;;;;;;5010103;28;20030;-58
2023/04/09 06:18:18;;;;;;;93.22;26.50;;;;;;;;;;5012458;28;20054;-58
2023/04/09 06:20:44;;;;;;;95.93;28.15;;;;;;;;;;5011425;28;20407;-58
2023/04/09 06:23:10;;;;;;;130.32;34.17;;;;;;;;;;4993300;28;20041;-58
2023/04/09 06:25:36;;;;;;;141.27;36.85;;;;;;;;;;5012270;28;20144;-57
2023/04/09 06:28:03;;;;;;;158.05;37.63;;;;;;;;;;5012650;28;20036;-57
2023/04/09 06:30:30;;;;;;;120.60;33.20;;;;;;;;;;5009053;28;20514;-57
2023/04/09 06:32:56;;;;;;;109.80;29.42;;;;;;;;;;5012223;28;20717;-57
2023/04/09 06:35:22;;;;;;;86.68;25.77;;;;;;;;;;5012012;28;20030;-57
2023/04/09 06:37:49;;;;;;;97.47;27.30;;;;;;;;;;5008493;28;20034;-57
2023/04/09 06:40:15;;;;;;;93.60;26.88;;;;;;;;;;5010057;28;20033;-57
2023/04/09 06:42:41;;;;;;;79.68;24.02;;;;;;;;;;5011617;28;20392;-56
2023/04/09 06:45:19;;;;;;;95.38;27.20;;;;;;;;;;5004704;28;20038;-57
2023/04/09 06:47:45;;;;;;;95.55;28.13;;;;;;;;;;5012151;28;20033;-57
2023/04/09 06:50:11;;;;;;;52.50;15.95;;;;;;;;;;5011581;28;20053;-57
2023/04/09 06:52:37;;;;;;;79.63;23.52;;;;;;;;;;5011541;28;20048;-56
2023/04/09 06:55:04;;;;;;;63.80;20.90;;;;;;;;;;5008713;28;20025;-57
2023/04/09 06:57:30;;;;;;;55.95;19.65;;;;;;;;;;5010408;28;20507;-57
2023/04/09 06:59:56;;;;;;;51.10;19.67;;;;;;;;;;5010455;28;20499;-57
2023/04/09 07:02:22;;;;;;;51.88;19.35;;;;;;;;;;5010098;28;20045;-57
2023/04/09 07:04:48;;;;;;;63.05;21.42;;;;;;;;;;5011808;28;20046;-56
2023/04/09 07:07:14;;;;;;;59.72;20.75;;;;;;;;;;5012099;28;20048;-56
2023/04/09 07:09:41;;;;;;;57.42;20.55;;;;;;;;;;5010272;28;20046;-57
2023/04/09 07:12:07;;;;;;;64.10;22.05;;;;;;;;;;5011836;28;20033;-56
2023/04/09 07:14:34;;;;;;;63.05;21.45;;;;;;;;;;5010498;28;20041;-58
2023/04/09 07:17:00;;;;;;;67.70;23.05;;;;;;;;;;5011639;28;20046;-56
2023/04/09 07:19:26;;;;;;;65.93;23.50;;;;;;;;;;5011328;28;20495;-56
2023/04/09 07:21:52;;;;;;;56.88;20.42;;;;;;;;;;5010562;28;20045;-57
2023/04/09 07:24:18;;;;;;;56.58;21.05;;;;;;;;;;5007137;28;20049;-57
2023/04/09 07:26:44;;;;;;;53.47;19.92;;;;;;;;;;5010431;28;20065;-57
2023/04/09 07:29:10;;;;;;;52.08;18.58;;;;;;;;;;5010171;28;20049;-57
2023/04/09 07:31:36;;;;;;;70.05;24.25;;;;;;;;;;5011266;28;20046;-56
2023/04/09 07:34:03;;;;;;;65.55;24.35;;;;;;;;;;5010904;28;20053;-57
2023/04/09 07:36:30;;;;;;;57.83;20.02;;;;;;;;;;5011732;28;20037;-57
2023/04/09 07:38:57;;;;;;;48.75;17.33;;;;;;;;;;5010785;28;20057;-58
2023/04/09 07:41:24;;;;;;;46.20;18.85;;;;;;;;;;5010691;28;20065;-57
2023/04/09 07:43:51;;;;;;;48.50;18.98;;;;;;;;;;5010571;28;20407;-57
2023/04/09 07:46:19;;;;;;;50.55;17.58;;;;;;;;;;5011031;28;20045;-57
2023/04/09 07:48:45;;;;;;;49.17;16.75;;;;;;;;;;5010773;28;20054;-57
2023/04/09 07:51:11;;;;;;;51.08;17.48;;;;;;;;;;5010578;28;20148;-58
2023/04/09 07:53:37;;;;;;;45.83;15.45;;;;;;;;;;5010665;28;20026;-58
2023/04/09 07:56:04;;;;;;;45.35;16.52;;;;;;;;;;5010793;28;20391;-58
2023/04/09 07:58:30;;;;;;;44.17;15.57;;;;;;;;;;5009484;28;20045;-57
2023/04/09 08:00:56;;;;;;;48.95;17.50;;;;;;;;;;5009983;28;20065;-57
2023/04/09 08:03:22;;;;;;;47.40;17.27;;;;;;;;;;5010753;28;20036;-57
2023/04/09 08:05:48;;;;;;;41.65;16.23;;;;;;;;;;5009153;28;20030;-58
2023/04/09 08:08:15;;;;;;;40.63;14.27;;;;;;;;;;5010597;28;20040;-58
2023/04/09 08:10:41;;;;;;;35.15;14.00;;;;;;;;;;5008472;28;20060;-58
2023/04/09 08:13:07;;;;;;;36.08;14.23;;;;;;;;;;5009639;28;20052;-58
2023/04/09 08:15:33;;;;;;;37.90;14.23;;;;;;;;;;5008953;28;20038;-58
2023/04/09 08:18:02;;;;;;;36.85;13.77;;;;;;;;;;5009038;28;20403;-57
2023/04/09 08:20:28;;;;;;;36.95;13.65;;;;;;;;;;5009788;28;20037;-58
2023/04/09 08:22:54;;;;;;;37.00;14.40;;;;;;;;;;5010324;28;20040;-58
2023/04/09 08:25:21;;;;;;;40.22;14.38;;;;;;;;;;5010064;28;20038;-58
2023/04/09 08:27:47;;;;;;;35.35;13.45;;;;;;;;;;5010013;28;20492;-56
2023/04/09 08:30:13;;;;;;;35.05;13.30;;;;;;;;;;5008492;28;20048;-58
2023/04/09 08:32:39;;;;;;;32.42;13.00;;;;;;;;;;5010692;28;20065;-58
2023/04/09 08:35:06;;;;;;;27.23;11.70;;;;;;;;;;5010061;28;20392;-57
2023/04/09 08:37:32;;;;;;;28.50;11.93;;;;;;;;;;5009467;28;20511;-58
2023/04/09 08:39:58;;;;;;;29.00;12.75;;;;;;;;;;5009078;28;20026;-57
2023/04/09 08:42:25;;;;;;;28.13;11.48;;;;;;;;;;5009538;28;20042;-57
2023/04/09 08:44:51;;;;;;;28.92;12.27;;;;;;;;;;5009347;28;20056;-58
2023/04/09 08:47:19;;;;;;;27.30;12.57;;;;;;;;;;5009775;28;20392;-56
2023/04/09 08:49:47;;;;;;;28.02;12.25;;;;;;;;;;5007990;28;20527;-57
2023/04/09 08:52:15;;;;;;;25.80;11.35;;;;;;;;;;5009869;28;20045;-59
2023/04/09 08:54:41;;;;;;;25.77;10.77;;;;;;;;;;5009706;28;20046;-56
2023/04/09 08:57:07;;;;;;;27.50;12.07;;;;;;;;;;5009923;28;20113;-58
2023/04/09 08:59:35;;;;;;;27.02;12.05;;;;;;;;;;5008305;28;20056;-57
2023/04/09 09:02:11;;;;;;;28.05;12.10;;;;;;;;;;5009580;28;20074;-58
2023/04/09 09:04:47;;;;;;;26.40;12.15;;;;;;;;;;5009658;28;20045;-59
2023/04/09 09:07:14;;;;;;;27.90;12.50;;;;;;;;;;5009629;28;20026;-58
2023/04/09 09:09:55;;;;;;;26.42;11.77;;;;;;;;;;5008861;28;20041;-56
2023/04/09 09:12:38;;;;;;;26.30;11.50;;;;;;;;;;5009392;28;20046;-57
2023/04/09 09:15:23;;;;;;;24.38;12.10;;;;;;;;;;5008856;28;20046;-58
2023/04/09 09:17:57;;;;;;;21.58;10.20;;;;;;;;;;5008131;28;20432;-58
2023/04/09 09:20:24;;;;;;;31.08;14.20;;;;;;;;;;5005710;28;20034;-58
2023/04/09 09:22:52;;;;;;;29.90;13.88;;;;;;;;;;5007621;28;20038;-58
2023/04/09 09:25:24;;;;;;;25.67;12.30;;;;;;;;;;5009631;28;20046;-57
2023/04/09 09:27:52;;;;;;;26.27;12.25;;;;;;;;;;5005086;28;20045;-58
2023/04/09 09:30:23;;;;;;;25.77;12.45;;;;;;;;;;5003696;28;20410;-56
2023/04/09 09:33:02;;;;;;;22.80;11.43;;;;;;;;;;5009412;28;20034;-57
2023/04/09 09:35:29;;;;;;;30.08;12.82;;;;;;;;;;5013357;28;20029;-57
2023/04/09 09:38:03;;;;;;;25.48;11.80;;;;;;;;;;5013377;28;20053;-53
2023/04/09 09:40:29;;;;;;;21.83;11.77;;;;;;;;;;5012212;28;20068;-58
2023/04/09 09:42:56;;;;;;;23.00;11.57;;;;;;;;;;5013018;28;20057;-58
2023/04/09 09:45:23;;;;;;;20.42;10.93;;;;;;;;;;5012708;28;20029;-57
2023/04/09 09:47:51;;;;;;;20.23;11.40;;;;;;;;;;5013224;28;20033;-59
2023/04/09 09:50:19;;;;;;;24.27;12.75;;;;;;;;;;5011192;28;20037;-58
2023/04/09 09:52:46;;;;;;;22.67;11.32;;;;;;;;;;5013024;28;20034;-58
2023/04/09 09:55:13;;;;;;;23.50;11.63;;;;;;;;;;5012218;28;20032;-58
2023/04/09 09:57:43;;;;;;;19.98;11.48;;;;;;;;;;5013065;28;20053;-58
2023/04/09 10:00:11;;;;;;;23.00;10.88;;;;;;;;;;5011402;28;20122;-58
2023/04/09 10:02:55;;;;;;;20.77;11.05;;;;;;;;;;5012915;28;20385;-58
2023/04/09 10:05:25;;;;;;;20.70;11.10;;;;;;;;;;5006998;28;20042;-58
2023/04/09 10:07:56;;;;;;;32.40;15.50;;;;;;;;;;5012127;28;20037;-58
2023/04/09 10:10:24;;;;;;;18.85;9.85;;;;;;;;;;5012492;28;20050;-57
2023/04/09 10:12:51;;;;;;;17.42;9.57;;;;;;;;;;5012764;28;20053;-58
2023/04/09 10:15:20;;;;;;;19.17;10.65;;;;;;;;;;5009482;28;20034;-58
2023/04/09 10:17:46;;;;;;;21.38;10.95;;;;;;;;;;5012781;28;20029;-58
2023/04/09 10:20:24;;;;;;;17.10;10.10;;;;;;;;;;5008770;28;20048;-58
2023/04/09 10:22:52;;;;;;;17.02;10.07;;;;;;;;;;5010540;28;20033;-58
2023/04/09 10:25:19;;;;;;;18.77;11.18;;;;;;;;;;5010455;28;20034;-58
2023/04/09 10:27:58;;;;;;;17.13;10.38;;;;;;;;;;5011311;28;20041;-58
2023/04/09 10:30:34;;;;;;;17.85;10.50;;;;;;;;;;5008264;28;20512;-58
2023/04/09 10:33:30;;;;;;;16.27;9.20;;;;;;;;;;5012339;28;20584;-58
2023/04/09 10:36:03;;;;;;;16.63;9.98;;;;;;;;;;5011323;28;20054;-57
2023/04/09 10:38:36;;;;;;;16.52;9.38;;;;;;;;;;5011645;28;20045;-59
2023/04/09 10:41:26;;;;;;;14.15;9.02;;;;;;;;;;5004350;28;20061;-58
2023/04/09 10:43:52;;;;;;;15.10;8.85;;;;;;;;;;5010968;28;20041;-58
2023/04/09 10:46:32;;;;;;;16.60;9.93;;;;;;;;;;5009763;28;20112;-58
2023/04/09 10:49:14;;;;;;;14.38;8.90;;;;;;;;;;5011796;28;20030;-58
2023/04/09 10:51:41;;;;;;;14.65;9.20;;;;;;;;;;5010573;28;20488;-57
2023/04/09 10:54:33;;;;;;;15.00;8.82;;;;;;;;;;5011275;28;20037;-58
2023/04/09 10:57:12;;;;;;;12.02;8.27;;;;;;;;;;5008405;28;20380;-58
2023/04/09 10:59:41;;;;;;;16.80;9.38;;;;;;;;;;5007569;28;20483;-58
2023/04/09 11:02:09;;;;;;;13.77;8.63;;;;;;;;;;5011924;28;20050;-59
2023/04/09 11:04:38;;;;;;;13.73;8.05;;;;;;;;;;5010671;28;20041;-59
2023/04/09 11:07:05;;;;;;;12.98;7.88;;;;;;;;;;5023372;28;20049;-58
2023/04/09 11:09:35;;;;;;;13.18;8.27;;;;;;;;;;5010869;28;20077;-58
2023/04/09 11:12:02;;;;;;;11.65;7.57;;;;;;;;;;5011554;28;20042;-58
2023/04/09 11:14:28;;;;;;;10.20;7.10;;;;;;;;;;5010344;28;20053;-58
2023/04/09 11:16:54;;;;;;;12.32;7.93;;;;;;;;;;5011310;28;20053;-58
2023/04/09 11:19:21;;;;;;;11.85;7.65;;;;;;;;;;5010658;28;20046;-58
2023/04/09 11:21:47;;;;;;;13.68;8.38;;;;;;;;;;5008684;28;20030;-58
2023/04/09 11:24:14;;;;;;;11.88;7.80;;;;;;;;;;5010862;28;20037;-59
2023/04/09 11:26:40;;;;;;;11.18;7.22;;;;;;;;;;5011329;28;20117;-58
2023/04/09 11:29:07;;;;;;;11.60;7.78;;;;;;;;;;5006804;28;20057;-58
2023/04/09 11:31:34;;;;;;;9.98;6.95;;;;;;;;;;5008156;28;20050;-58
2023/04/09 11:34:01;;;;;;;10.50;6.85;;;;;;;;;;5010494;28;20052;-58
2023/04/09 11:36:28;;;;;;;10.60;7.10;;;;;;;;;;5010773;28;20034;-59
2023/04/09 11:38:54;;;;;;;11.15;7.30;;;;;;;;;;5010609;28;20033;-59
2023/04/09 11:41:33;;;;;;;10.25;7.60;;;;;;;;;;5009020;28;20041;-57
2023/04/09 11:44:04;;;;;;;13.73;7.90;;;;;;;;;;5009140;28;20480;-57
2023/04/09 11:46:37;;;;;;;12.05;7.88;;;;;;;;;;5008504;28;20300;-58
2023/04/09 11:49:04;;;;;;;9.43;7.25;;;;;;;;;;5008850;28;20504;-58
2023/04/09 11:51:31;;;;;;;11.13;7.22;;;;;;;;;;5010634;28;20423;-57
2023/04/09 11:54:05;;;;;;;9.77;6.68;;;;;;;;;;5009752;28;20439;-58
2023/04/09 11:56:31;;;;;;;12.55;8.15;;;;;;;;;;5010060;28;20027;-58
2023/04/09 11:58:58;;;;;;;9.80;7.30;;;;;;;;;;5010603;28;20381;-59
2023/04/09 12:01:30;;;;;;;10.10;7.43;;;;;;;;;;5009263;28;20480;-58
2023/04/09 12:03:56;;;;;;;9.43;6.90;;;;;;;;;;5009366;28;20029;-59
2023/04/09 12:06:25;;;;;;;9.02;6.88;;;;;;;;;;5010021;28;20052;-58
2023/04/09 12:08:52;;;;;;;10.02;7.13;;;;;;;;;;5008612;28;20034;-60
2023/04/09 12:11:19;;;;;;;10.60;7.25;;;;;;;;;;5009802;28;20053;-58
2023/04/09 12:13:45;;;;;;;10.15;7.47;;;;;;;;;;5009374;28;20395;-58
2023/04/09 12:16:12;;;;;;;7.72;5.38;;;;;;;;;;5009959;28;20034;-57
2023/04/09 12:18:39;;;;;;;9.90;7.03;;;;;;;;;;5009700;28;20037;-59
2023/04/09 12:21:05;;;;;;;10.23;6.05;;;;;;;;;;5009938;28;20088;-58
2023/04/09 12:23:32;;;;;;;8.60;6.30;;;;;;;;;;5010213;28;20030;-58
2023/04/09 12:26:00;;;;;;;8.48;6.22;;;;;;;;;;5009755;28;20050;-57
2023/04/09 12:28:27;;;;;;;7.90;5.57;;;;;;;;;;5009909;28;20052;-58
2023/04/09 12:30:53;;;;;;;8.40;6.47;;;;;;;;;;5009398;28;20415;-60
2023/04/09 12:33:20;;;;;;;7.68;5.75;;;;;;;;;;5009930;28;20057;-58
2023/04/09 12:35:46;;;;;;;9.30;6.72;;;;;;;;;;5009489;28;20030;-58
2023/04/09 12:38:12;;;;;;;9.98;7.28;;;;;;;;;;5009929;28;20026;-58
2023/04/09 12:40:39;;;;;;;7.90;6.05;;;;;;;;;;5009120;28;20492;-58
2023/04/09 12:43:05;;;;;;;7.88;6.50;;;;;;;;;;5009763;28;20053;-57
2023/04/09 12:45:31;;;;;;;8.55;6.57;;;;;;;;;;5009917;28;20038;-58
2023/04/09 12:47:58;;;;;;;9.32;6.68;;;;;;;;;;5009974;28;20530;-58
2023/04/09 12:50:24;;;;;;;9.50;6.68;;;;;;;;;;5009352;28;20048;-57
2023/04/09 12:52:50;;;;;;;9.10;6.93;;;;;;;;;;5009448;28;20034;-57
2023/04/09 12:55:17;;;;;;;9.05;6.88;;;;;;;;;;5006243;28;20038;-58
2023/04/09 12:57:45;;;;;;;8.40;6.57;;;;;;;;;;5010054;28;20056;-58
2023/04/09 13:00:12;;;;;;;9.32;7.10;;;;;;;;;;5008909;28;20042;-59
2023/04/09 13:02:38;;;;;;;8.48;6.80;;;;;;;;;;5009835;28;20486;-58
2023/04/09 13:05:05;;;;;;;9.20;6.55;;;;;;;;;;5009323;28;20041;-57
2023/04/09 13:07:31;;;;;;;9.35;6.90;;;;;;;;;;5010616;28;20428;-57
2023/04/09 13:09:57;;;;;;;9.40;6.90;;;;;;;;;;5011749;28;20049;-57
2023/04/09 13:12:24;;;;;;;9.05;7.22;;;;;;;;;;5014218;28;20037;-58
2023/04/09 13:14:52;;;;;;;10.07;7.25;;;;;;;;;;5011733;28;20034;-58
2023/04/09 13:17:19;;;;;;;7.47;6.40;;;;;;;;;;5008068;28;20072;-57
2023/04/09 13:19:45;;;;;;;9.43;6.85;;;;;;;;;;5012710;28;20033;-57
2023/04/09 13:22:11;;;;;;;9.60;6.65;;;;;;;;;;5013873;28;20038;-58
2023/04/09 13:24:38;;;;;;;8.30;6.38;;;;;;;;;;5013273;28;20057;-58
2023/04/09 13:27:05;;;;;;;8.32;6.30;;;;;;;;;;5014012;28;20037;-58
2023/04/09 13:29:31;;;;;;;9.00;6.82;;;;;;;;;;5012710;28;20042;-57
2023/04/09 13:32:00;;;;;;;15.23;8.32;;;;;;;;;;5013360;28;20026;-58
2023/04/09 13:34:26;;;;;;;14.40;8.13;;;;;;;;;;5013322;28;20045;-58
2023/04/09 13:36:52;;;;;;;8.10;6.40;;;;;;;;;;5013408;28;20041;-58
2023/04/09 13:39:19;;;;;;;21.02;11.00;;;;;;;;;;5010569;28;20046;-58
2023/04/09 13:41:45;;;;;;;9.90;6.70;;;;;;;;;;5013581;28;20037;-58
2023/04/09 13:44:11;;;;;;;9.07;7.03;;;;;;;;;;5012550;28;20022;-59
2023/04/09 13:46:38;;;;;;;9.30;6.47;;;;;;;;;;5013160;28;20045;-58
2023/04/09 13:49:04;;;;;;;16.27;9.90;;;;;;;;;;5012654;28;20104;-58
2023/04/09 13:51:31;;;;;;;10.43;7.28;;;;;;;;;;5013176;28;20054;-58
2023/04/09 13:53:57;;;;;;;9.60;6.40;;;;;;;;;;5012682;28;20045;-58
2023/04/09 13:56:24;;;;;;;8.27;6.30;;;;;;;;;;5013344;28;20033;-58
2023/04/09 13:58:50;;;;;;;8.43;6.53;;;;;;;;;;5012832;28;20060;-59
2023/04/09 14:01:16;;;;;;;8.73;6.78;;;;;;;;;;5011170;28;20044;-59
2023/04/09 14:03:43;;;;;;;8.23;6.43;;;;;;;;;;5011691;28;20044;-59
2023/04/09 14:06:09;;;;;;;8.50;6.93;;;;;;;;;;5012305;28;20048;-59
2023/04/09 14:08:35;;;;;;;7.82;6.03;;;;;;;;;;5012679;28;20033;-58
2023/04/09 14:11:02;;;;;;;7.18;5.90;;;;;;;;;;5012235;28;20037;-59
2023/04/09 14:13:28;;;;;;;7.50;5.72;;;;;;;;;;5012372;28;20519;-58
2023/04/09 14:15:54;;;;;;;8.02;6.50;;;;;;;;;;5012282;28;20038;-59
2023/04/09 14:18:20;;;;;;;8.98;6.40;;;;;;;;;;5010641;28;20034;-58
2023/04/09 14:20:47;;;;;;;8.90;6.82;;;;;;;;;;5008501;28;20058;-57
2023/04/09 14:23:13;;;;;;;8.57;6.47;;;;;;;;;;5012476;28;20030;-54
2023/04/09 14:25:39;;;;;;;9.10;7.10;;;;;;;;;;5009299;28;20034;-57
2023/04/09 14:28:05;;;;;;;7.03;5.82;;;;;;;;;;5008083;28;20140;-54
2023/04/09 14:30:32;;;;;;;9.30;7.22;;;;;;;;;;5011893;28;20034;-58
2023/04/09 14:32:58;;;;;;;7.90;6.15;;;;;;;;;;5012041;28;20034;-58